Time;durP1;ratioP1;P1;durP2;ratioP2;P2;SDS_P1;SDS_P2;PMS_P1;PMS_P2;Temp;Humidity;BMP_temperature;BMP_pressure;BME280_temperature;BME280_humidity;BME280_pressure;Samples;Min_cycle;Max_cycle;Signal;HPM_P1;HPM_P2
2023/05/12 00:00:55;;;;;;;6.32;3.47;;;;;;;16.94;68.19;101883.88;4979763;28;20552;-49
2023/05/12 00:03:21;;;;;;;5.35;3.58;;;;;;;16.76;68.79;101884.69;4983179;28;20113;-45
2023/05/12 00:05:46;;;;;;;6.35;3.20;;;;;;;16.74;68.78;101880.28;4979023;28;20125;-51
2023/05/12 00:08:12;;;;;;;8.13;3.60;;;;;;;16.79;68.62;101884.69;4982894;28;20042;-49
2023/05/12 00:10:37;;;;;;;8.32;3.55;;;;;;;16.83;68.19;101875.06;4982601;28;20077;-48
2023/05/12 00:13:02;;;;;;;5.43;3.60;;;;;;;16.94;67.76;101876.84;4961864;28;20054;-47
2023/05/12 00:15:28;;;;;;;5.47;3.45;;;;;;;16.92;67.82;101878.59;4982980;28;20038;-51
2023/05/12 00:17:53;;;;;;;6.25;3.50;;;;;;;16.75;68.05;101875.03;4979642;28;20129;-47
2023/05/12 00:20:18;;;;;;;5.90;3.70;;;;;;;16.60;68.17;101875.81;4982726;28;20048;-50
2023/05/12 00:22:44;;;;;;;5.93;3.80;;;;;;;16.60;68.34;101883.72;4979363;28;20042;-46
2023/05/12 00:25:09;;;;;;;5.43;3.42;;;;;;;16.56;68.05;101878.41;4982366;28;20038;-52
2023/05/12 00:27:34;;;;;;;7.32;3.70;;;;;;;16.60;68.37;101875.81;4982543;28;20038;-46
2023/05/12 00:30:00;;;;;;;6.05;3.50;;;;;;;16.47;68.90;101879.22;4978829;28;20046;-46
2023/05/12 00:32:26;;;;;;;5.72;3.60;;;;;;;16.51;68.26;101874.88;4982718;28;20053;-45
2023/05/12 00:34:53;;;;;;;6.70;3.30;;;;;;;16.40;68.50;101881.84;4979688;28;20042;-46
2023/05/12 00:37:18;;;;;;;5.63;3.40;;;;;;;16.30;69.27;101873.00;4982047;28;20429;-46
2023/05/12 00:39:44;;;;;;;5.70;3.33;;;;;;;16.43;68.24;101872.22;4979395;28;20065;-50
2023/05/12 00:42:10;;;;;;;5.30;3.42;;;;;;;16.40;68.34;101874.84;4982424;28;20030;-47
2023/05/12 00:44:36;;;;;;;5.47;3.50;;;;;;;16.31;68.31;101873.88;4982212;28;20501;-48
2023/05/12 00:47:03;;;;;;;5.32;3.20;;;;;;;16.27;69.33;101872.13;4979043;28;20073;-46
2023/05/12 00:49:28;;;;;;;5.07;2.97;;;;;;;16.41;68.51;101873.94;4982195;28;20034;-47
2023/05/12 00:51:56;;;;;;;4.25;2.85;;;;;;;16.28;69.07;101871.25;4977184;28;20523;-47
2023/05/12 00:54:22;;;;;;;4.25;3.08;;;;;;;16.20;69.27;101868.56;4982973;28;20065;-48
2023/05/12 00:56:47;;;;;;;4.35;2.80;;;;;;;16.23;69.11;101869.44;4979085;28;20067;-46
2023/05/12 00:59:13;;;;;;;5.20;2.80;;;;;;;16.29;68.93;101871.25;4982476;28;20061;-51
2023/05/12 01:01:38;;;;;;;4.50;2.50;;;;;;;16.12;69.26;101875.53;4981679;28;20489;-50
2023/05/12 01:04:04;;;;;;;4.20;2.88;;;;;;;16.21;68.62;101863.31;4978318;28;20054;-46
2023/05/12 01:06:38;;;;;;;4.05;2.80;;;;;;;16.19;68.91;101865.06;4981752;28;20049;-51
2023/05/12 01:09:04;;;;;;;4.10;2.60;;;;;;;16.09;69.23;101867.63;4978410;28;20035;-51
2023/05/12 01:11:30;;;;;;;4.50;2.70;;;;;;;16.15;69.13;101865.91;4981990;28;20038;-50
2023/05/12 01:13:55;;;;;;;5.53;2.72;;;;;;;16.09;68.83;101865.00;4978830;28;20035;-51
2023/05/12 01:16:25;;;;;;;3.60;2.47;;;;;;;16.06;69.07;101871.09;4982119;28;20042;-47
2023/05/12 01:18:54;;;;;;;4.25;2.53;;;;;;;16.13;69.03;101861.50;4980989;28;20034;-51
2023/05/12 01:21:26;;;;;;;5.22;2.50;;;;;;;16.10;69.22;101866.75;4985814;28;20040;-48
2023/05/12 01:23:57;;;;;;;4.60;2.50;;;;;;;15.87;69.54;101863.94;4982681;28;20053;-49
2023/05/12 01:26:22;;;;;;;4.20;2.50;;;;;;;15.87;69.36;101863.94;4986579;28;20444;-47
2023/05/12 01:28:49;;;;;;;4.95;2.60;;;;;;;15.86;69.56;101863.97;4982551;28;20035;-46
2023/05/12 01:31:15;;;;;;;5.82;2.78;;;;;;;15.96;69.40;101864.03;4985919;28;20046;-46
2023/05/12 01:33:41;;;;;;;5.10;2.50;;;;;;;16.03;69.00;101865.84;4982549;28;20042;-45
2023/05/12 01:36:06;;;;;;;3.80;2.55;;;;;;;16.27;68.20;101862.47;4985902;28;20046;-46
2023/05/12 01:38:31;;;;;;;4.45;2.60;;;;;;;16.08;68.96;101866.75;4985953;28;20054;-46
2023/05/12 01:40:57;;;;;;;3.65;2.30;;;;;;;15.88;69.21;101860.44;4982151;28;20038;-48
2023/05/12 01:43:22;;;;;;;6.00;2.60;;;;;;;15.94;69.12;101864.88;4986000;28;20026;-50
2023/05/12 01:45:47;;;;;;;4.88;2.70;;;;;;;16.13;68.59;101861.50;4981518;28;20385;-47
2023/05/12 01:48:13;;;;;;;7.65;2.50;;;;;;;16.10;68.80;101857.09;4985977;28;20110;-50
2023/05/12 01:50:38;;;;;;;5.03;2.90;;;;;;;16.03;69.48;101860.56;4985761;28;20034;-45
2023/05/12 01:53:03;;;;;;;5.47;3.10;;;;;;;15.94;69.18;101857.00;4982338;28;20042;-47
2023/05/12 01:55:29;;;;;;;6.03;3.22;;;;;;;15.94;69.19;101865.75;4985483;28;20035;-47
2023/05/12 01:57:54;;;;;;;7.18;3.47;;;;;;;16.01;68.47;101864.94;4981373;28;20042;-47
2023/05/12 02:00:20;;;;;;;5.75;3.65;;;;;;;15.99;67.70;101865.78;4985631;28;20463;-50
2023/05/12 02:02:45;;;;;;;6.18;3.38;;;;;;;15.90;69.11;101857.84;4981561;28;20042;-47
2023/05/12 02:05:11;;;;;;;7.75;3.50;;;;;;;16.06;68.91;101857.06;4984936;28;20034;-48
2023/05/12 02:07:36;;;;;;;6.07;3.47;;;;;;;16.01;68.53;101859.69;4985131;28;20034;-49
2023/05/12 02:10:02;;;;;;;7.30;3.70;;;;;;;15.94;68.93;101857.00;4981671;28;20062;-48
2023/05/12 02:12:27;;;;;;;6.38;3.72;;;;;;;15.88;69.10;101860.44;4984759;28;20026;-51
2023/05/12 02:14:53;;;;;;;6.68;3.97;;;;;;;16.02;68.97;101853.56;4981781;28;20034;-49
2023/05/12 02:17:18;;;;;;;8.50;4.13;;;;;;;16.17;68.51;101851.00;4985449;28;20058;-50
2023/05/12 02:19:43;;;;;;;7.13;4.10;;;;;;;16.13;68.54;101851.88;4981215;28;20084;-48
2023/05/12 02:22:09;;;;;;;8.15;4.30;;;;;;;15.60;70.03;101850.59;4984770;28;20058;-49
2023/05/12 02:24:34;;;;;;;8.25;4.20;;;;;;;16.05;68.86;101848.28;4984919;28;20501;-46
2023/05/12 02:26:59;;;;;;;7.93;4.32;;;;;;;16.00;69.11;101843.88;4981662;28;20501;-49
2023/05/12 02:29:25;;;;;;;8.52;4.50;;;;;;;16.19;68.24;101846.63;4984859;28;20525;-46
2023/05/12 02:31:50;;;;;;;7.72;4.50;;;;;;;16.26;68.23;101847.56;4983350;28;20042;-45
2023/05/12 02:34:15;;;;;;;8.40;4.82;;;;;;;16.04;68.99;101846.53;4986361;28;20036;-50
2023/05/12 02:36:40;;;;;;;7.57;4.63;;;;;;;15.93;69.44;101847.34;4982304;28;20501;-44
2023/05/12 02:39:06;;;;;;;7.97;4.60;;;;;;;15.86;69.79;101841.16;4985012;28;20443;-48
2023/05/12 02:41:32;;;;;;;8.35;4.70;;;;;;;15.82;69.81;101835.00;4984433;28;20405;-50
2023/05/12 02:43:57;;;;;;;10.35;4.78;;;;;;;15.36;70.96;101831.09;4980945;28;20031;-46
2023/05/12 02:46:23;;;;;;;6.65;4.30;;;;;;;15.76;70.39;101829.69;4984698;28;20030;-45
2023/05/12 02:48:48;;;;;;;8.32;4.45;;;;;;;15.73;70.18;101832.31;4980175;28;20030;-49
2023/05/12 02:51:13;;;;;;;7.68;4.28;;;;;;;15.92;69.39;101830.66;4984117;28;20077;-44
2023/05/12 02:53:39;;;;;;;6.57;4.30;;;;;;;15.67;70.60;101827.00;4984233;28;20027;-49
2023/05/12 02:56:05;;;;;;;8.63;4.57;;;;;;;15.70;70.64;101827.03;4980997;28;20037;-49
2023/05/12 02:58:30;;;;;;;8.98;4.70;;;;;;;15.68;70.45;101823.50;4984014;28;20041;-47
2023/05/12 03:00:56;;;;;;;9.52;5.32;;;;;;;15.43;71.04;101827.63;4980580;28;20034;-50
2023/05/12 03:03:21;;;;;;;11.18;5.57;;;;;;;15.89;70.01;101824.53;4984699;28;20034;-51
2023/05/12 03:05:47;;;;;;;13.35;6.85;;;;;;;15.52;71.53;101818.06;4980803;28;20036;-48
2023/05/12 03:08:12;;;;;;;10.48;6.70;;;;;;;15.75;71.07;101816.53;4983465;28;20516;-47
2023/05/12 03:10:38;;;;;;;13.35;7.22;;;;;;;15.74;71.24;101817.41;4983558;28;20041;-49
2023/05/12 03:13:03;;;;;;;14.07;6.82;;;;;;;15.61;71.68;101815.56;4980180;28;20030;-51
2023/05/12 03:15:29;;;;;;;11.98;6.28;;;;;;;15.31;72.26;101813.50;4983619;28;20080;-46
2023/05/12 03:17:54;;;;;;;10.27;5.53;;;;;;;15.63;71.82;101808.56;4980544;28;20129;-49
2023/05/12 03:20:19;;;;;;;8.73;5.00;;;;;;;15.13;73.64;101811.59;4984053;28;20038;-48
2023/05/12 03:22:45;;;;;;;9.32;4.90;;;;;;;15.39;72.60;101806.56;4980003;28;20133;-48
2023/05/12 03:25:11;;;;;;;8.52;4.50;;;;;;;15.58;72.02;101805.03;4983383;28;20041;-48
2023/05/12 03:27:36;;;;;;;8.43;4.15;;;;;;;15.67;72.01;101802.47;4983025;28;20030;-48
2023/05/12 03:30:03;;;;;;;7.35;4.10;;;;;;;15.56;72.75;101799.75;4979689;28;20042;-46
2023/05/12 03:32:29;;;;;;;9.15;4.30;;;;;;;15.59;72.46;101806.78;4983296;28;20030;-50
2023/05/12 03:34:55;;;;;;;9.52;4.35;;;;;;;15.26;73.29;101791.56;4980371;28;20092;-50
2023/05/12 03:37:20;;;;;;;8.73;4.13;;;;;;;15.39;73.38;101798.69;4983475;28;20039;-46
2023/05/12 03:39:45;;;;;;;8.00;4.25;;;;;;;15.20;74.43;101791.50;4979591;28;20404;-47
2023/05/12 03:42:11;;;;;;;6.90;3.70;;;;;;;15.58;72.82;101792.75;4983382;28;20092;-50
2023/05/12 03:44:36;;;;;;;7.03;3.33;;;;;;;15.34;73.67;101793.41;4982990;28;20031;-49
2023/05/12 03:47:01;;;;;;;5.55;3.10;;;;;;;15.61;73.01;101792.78;4979874;28;20039;-47
2023/05/12 03:49:27;;;;;;;5.13;2.90;;;;;;;15.25;73.30;101793.31;4983416;28;20157;-49
2023/05/12 03:51:52;;;;;;;4.70;2.70;;;;;;;15.12;74.80;101791.47;4980292;28;20034;-48
2023/05/12 03:54:17;;;;;;;5.25;2.75;;;;;;;15.28;74.09;101789.84;4970152;28;20057;-51
2023/05/12 03:56:42;;;;;;;4.57;2.70;;;;;;;15.39;73.74;101793.44;4960639;28;20047;-47
2023/05/12 03:59:10;;;;;;;4.78;2.50;;;;;;;15.30;74.04;101785.50;4963780;28;20122;-48
2023/05/12 04:01:36;;;;;;;4.60;2.20;;;;;;;15.05;74.42;101786.13;4963542;28;20031;-52
2023/05/12 04:04:01;;;;;;;5.13;1.80;;;;;;;14.76;75.75;101785.84;4960205;28;20043;-48
2023/05/12 04:06:26;;;;;;;3.40;1.95;;;;;;;15.23;74.37;101781.94;4963666;28;20058;-50
2023/05/12 04:08:52;;;;;;;2.75;1.90;;;;;;;14.92;75.04;101786.03;4960759;28;20141;-53
2023/05/12 04:11:17;;;;;;;3.88;1.80;;;;;;;14.97;75.24;101786.06;4963502;28;20031;-48
2023/05/12 04:13:42;;;;;;;3.17;1.90;;;;;;;15.13;74.83;101789.69;4960567;28;20050;-46
2023/05/12 04:16:08;;;;;;;3.50;1.83;;;;;;;15.17;74.29;101784.50;4963913;28;20117;-47
2023/05/12 04:18:35;;;;;;;5.40;2.17;;;;;;;14.89;75.07;101791.22;4963701;28;20421;-50
2023/05/12 04:21:01;;;;;;;3.85;2.10;;;;;;;15.29;74.13;101792.50;4960131;28;20050;-50
2023/05/12 04:23:27;;;;;;;4.07;2.38;;;;;;;15.01;75.04;101780.84;4963691;28;20042;-49
2023/05/12 04:25:52;;;;;;;2.65;2.22;;;;;;;15.17;74.51;101784.50;4959867;28;20084;-45
2023/05/12 04:28:17;;;;;;;4.07;2.70;;;;;;;15.05;74.33;101781.78;4963134;28;20114;-51
2023/05/12 04:30:43;;;;;;;4.78;2.90;;;;;;;15.13;74.90;101784.44;4959552;28;20047;-53
2023/05/12 04:33:08;;;;;;;4.78;2.95;;;;;;;15.31;74.11;101787.22;4963647;28;20031;-50
2023/05/12 04:35:34;;;;;;;5.13;3.42;;;;;;;15.04;74.97;101787.88;4963603;28;20035;-46
2023/05/12 04:38:00;;;;;;;5.65;3.80;;;;;;;15.28;73.94;101795.09;4962611;28;20038;-47
2023/05/12 04:40:26;;;;;;;6.32;3.85;;;;;;;15.18;75.18;101793.28;4964673;28;20027;-52
2023/05/12 04:42:51;;;;;;;7.18;3.92;;;;;;;15.46;73.52;101797.00;4979104;28;20033;-47
2023/05/12 04:45:16;;;;;;;6.85;4.00;;;;;;;15.20;74.85;101789.78;4981398;28;20508;-51
2023/05/12 04:47:41;;;;;;;6.97;4.32;;;;;;;15.48;74.13;101797.91;4959823;28;20181;-48
2023/05/12 04:50:09;;;;;;;8.73;4.65;;;;;;;15.27;75.11;101790.72;4982443;28;20035;-45
2023/05/12 04:52:34;;;;;;;7.93;4.53;;;;;;;15.32;74.78;101794.25;4981569;28;20046;-52
2023/05/12 04:54:59;;;;;;;6.70;4.50;;;;;;;15.34;74.38;101797.78;4978142;28;20035;-49
2023/05/12 04:57:25;;;;;;;7.20;4.65;;;;;;;15.31;74.76;101800.38;4981965;28;20400;-51
2023/05/12 04:59:50;;;;;;;9.55;4.88;;;;;;;15.33;74.79;101801.28;4977541;28;20070;-47
2023/05/12 05:02:15;;;;;;;7.13;5.20;;;;;;;15.35;75.04;101799.56;4982082;28;20418;-48
2023/05/12 05:04:41;;;;;;;7.53;4.80;;;;;;;15.44;75.05;101804.88;4979314;28;20532;-45
2023/05/12 05:07:06;;;;;;;7.85;4.97;;;;;;;15.66;74.05;101808.59;4981738;28;20037;-45
2023/05/12 05:09:31;;;;;;;8.32;4.90;;;;;;;15.40;74.67;101800.47;4982334;28;20400;-46
2023/05/12 05:11:57;;;;;;;8.48;5.15;;;;;;;15.23;75.20;101797.69;4976988;28;20042;-48
2023/05/12 05:14:22;;;;;;;7.47;4.57;;;;;;;15.58;74.90;101802.38;4983003;28;20517;-46
2023/05/12 05:16:47;;;;;;;8.25;5.15;;;;;;;15.81;74.24;101812.19;4978673;28;20038;-51
2023/05/12 05:19:13;;;;;;;8.13;5.00;;;;;;;15.60;74.65;101813.81;4983299;28;20042;-45
2023/05/12 05:21:39;;;;;;;8.88;4.93;;;;;;;15.72;73.99;101816.53;4982613;28;20041;-46
2023/05/12 05:24:05;;;;;;;8.35;4.82;;;;;;;15.84;73.71;101811.34;4979264;28;20030;-47
2023/05/12 05:26:30;;;;;;;8.48;5.30;;;;;;;15.69;74.64;101808.59;4983929;28;20034;-47
2023/05/12 05:28:56;;;;;;;8.85;5.20;;;;;;;15.52;74.88;101813.75;4983029;28;20485;-50
2023/05/12 05:31:21;;;;;;;8.98;5.32;;;;;;;15.75;74.97;101816.53;4988740;28;20685;-51
2023/05/12 05:33:47;;;;;;;10.40;5.65;;;;;;;15.75;75.04;101809.53;4979281;28;20477;-51
2023/05/12 05:36:12;;;;;;;10.68;5.80;;;;;;;15.99;74.02;101821.06;4982038;28;20041;-46
2023/05/12 05:38:38;;;;;;;10.45;5.85;;;;;;;15.94;74.59;101831.56;4981607;28;20026;-47
2023/05/12 05:41:03;;;;;;;12.00;6.30;;;;;;;15.74;74.85;101825.28;4977558;28;20097;-52
2023/05/12 05:43:29;;;;;;;12.02;6.50;;;;;;;15.89;74.79;101816.63;4981752;28;20559;-51
2023/05/12 05:45:57;;;;;;;13.15;6.78;;;;;;;16.02;74.49;101829.00;4978309;28;20551;-47
2023/05/12 05:48:23;;;;;;;13.10;6.90;;;;;;;16.09;74.03;101831.69;4981822;28;20031;-52
2023/05/12 05:50:50;;;;;;;13.55;7.13;;;;;;;16.18;73.93;101830.84;4978248;28;20500;-49
2023/05/12 05:53:17;;;;;;;13.52;6.80;;;;;;;16.15;73.73;101829.09;4981526;28;20030;-49
2023/05/12 05:55:43;;;;;;;16.13;8.23;;;;;;;16.14;74.38;101829.94;4977925;28;20034;-48
2023/05/12 05:58:08;;;;;;;21.02;10.00;;;;;;;15.74;75.86;101835.78;4981150;28;20455;-49
2023/05/12 06:00:33;;;;;;;22.55;10.05;;;;;;;16.14;74.88;101832.59;4981042;28;20572;-49
2023/05/12 06:02:59;;;;;;;24.75;11.20;;;;;;;16.01;75.35;101838.63;4978542;28;20034;-47
2023/05/12 06:05:24;;;;;;;23.92;11.68;;;;;;;15.97;75.98;101834.25;4985026;28;20034;-47
2023/05/12 06:07:49;;;;;;;32.50;13.52;;;;;;;15.77;76.72;101839.34;4982306;28;20548;-51
2023/05/12 06:10:15;;;;;;;28.65;12.57;;;;;;;16.23;75.32;101844.88;4985216;28;20089;-51
2023/05/12 06:12:40;;;;;;;31.65;13.32;;;;;;;16.39;74.76;101841.50;4983472;28;20121;-48
2023/05/12 06:15:06;;;;;;;31.20;13.48;;;;;;;16.22;75.30;101843.16;4981865;28;20030;-45
2023/05/12 06:17:31;;;;;;;30.63;13.57;;;;;;;16.34;74.98;101837.09;4985272;28;20068;-51
2023/05/12 06:19:57;;;;;;;33.08;14.55;;;;;;;16.09;76.07;101847.47;4981480;28;20104;-51
2023/05/12 06:22:23;;;;;;;31.48;14.05;;;;;;;16.30;75.33;101849.31;4985244;28;20449;-52
2023/05/12 06:24:49;;;;;;;34.30;14.38;;;;;;;16.45;74.94;101848.53;4981654;28;20040;-52
2023/05/12 06:27:14;;;;;;;34.10;14.43;;;;;;;16.79;73.85;101849.56;4984647;28;20118;-45
2023/05/12 06:29:40;;;;;;;35.28;14.70;;;;;;;16.70;74.26;101854.81;4984818;28;20049;-44
2023/05/12 06:32:05;;;;;;;32.05;14.45;;;;;;;16.58;74.74;101847.72;4981372;28;20069;-47
2023/05/12 06:34:31;;;;;;;34.08;14.60;;;;;;;16.50;75.14;101852.06;4985365;28;20030;-47
2023/05/12 06:36:57;;;;;;;33.05;14.52;;;;;;;16.49;75.45;101842.41;4981756;28;20022;-46
2023/05/12 06:39:22;;;;;;;30.15;14.38;;;;;;;16.98;73.78;101846.13;4985385;28;20038;-46
2023/05/12 06:41:47;;;;;;;33.75;14.27;;;;;;;16.65;75.33;101851.28;4981120;28;20030;-48
2023/05/12 06:44:12;;;;;;;29.92;14.43;;;;;;;17.15;74.34;101848.78;4984807;28;20159;-48
2023/05/12 06:46:38;;;;;;;33.85;14.20;;;;;;;17.23;74.22;101847.94;4964816;28;20057;-50
2023/05/12 06:49:04;;;;;;;28.40;14.00;;;;;;;17.41;73.55;101850.59;4981020;28;20038;-50
2023/05/12 06:51:30;;;;;;;28.77;13.07;;;;;;;17.63;73.16;101847.97;4984155;28;20049;-49
2023/05/12 06:53:55;;;;;;;28.60;13.50;;;;;;;17.50;73.29;101846.22;4980810;28;20029;-47
2023/05/12 06:56:22;;;;;;;23.67;12.90;;;;;;;17.86;72.56;101850.63;4984796;28;20046;-48
2023/05/12 06:58:48;;;;;;;24.95;12.65;;;;;;;18.27;71.14;101856.69;4980968;28;20030;-49
2023/05/12 07:01:13;;;;;;;20.83;11.52;;;;;;;17.71;72.31;101848.88;4984212;28;20026;-48
2023/05/12 07:03:39;;;;;;;21.00;11.40;;;;;;;18.25;71.41;101853.19;4984013;28;20032;-49
2023/05/12 07:06:04;;;;;;;19.35;11.23;;;;;;;17.84;71.57;101855.91;4980844;28;20061;-47
2023/05/12 07:08:29;;;;;;;23.23;11.02;;;;;;;18.06;71.09;101864.66;4983893;28;20400;-48
2023/05/12 07:10:55;;;;;;;17.27;9.55;;;;;;;18.01;70.81;101855.88;4980070;28;20034;-50
2023/05/12 07:13:21;;;;;;;18.13;9.98;;;;;;;18.25;69.21;101855.81;4984288;28;20026;-51
2023/05/12 07:15:46;;;;;;;18.17;9.35;;;;;;;18.32;69.52;101865.47;4980280;28;20113;-52
2023/05/12 07:18:12;;;;;;;15.68;9.50;;;;;;;17.96;69.30;101870.84;4983770;28;20034;-46
2023/05/12 07:20:37;;;;;;;15.02;9.20;;;;;;;18.18;69.16;101872.53;4983289;28;20026;-49
2023/05/12 07:23:03;;;;;;;13.55;9.00;;;;;;;18.36;67.18;101874.28;4994932;23;20077;-48
2023/05/12 07:25:28;;;;;;;13.93;8.93;;;;;;;17.84;68.22;101877.88;4984452;28;20030;-50
2023/05/12 07:27:54;;;;;;;14.45;8.50;;;;;;;18.45;67.45;101879.53;4981728;28;20034;-49
2023/05/12 07:30:21;;;;;;;13.80;8.40;;;;;;;18.59;65.93;101877.75;4985103;28;20108;-47
2023/05/12 07:32:46;;;;;;;15.05;9.02;;;;;;;18.41;66.36;101881.31;4980929;28;20034;-47
2023/05/12 07:35:12;;;;;;;15.50;9.25;;;;;;;18.79;65.61;101883.81;4984525;28;20444;-52
2023/05/12 07:37:37;;;;;;;13.82;9.02;;;;;;;18.75;65.31;101882.09;4984883;28;20029;-48
2023/05/12 07:40:03;;;;;;;13.88;8.85;;;;;;;18.77;65.56;101884.75;4982161;28;20062;-48
2023/05/12 07:42:29;;;;;;;14.70;9.45;;;;;;;18.70;66.01;101885.63;4985499;28;20030;-50
2023/05/12 07:44:54;;;;;;;14.48;9.38;;;;;;;19.19;64.81;101887.16;4987457;28;20499;-50
2023/05/12 07:47:19;;;;;;;14.93;9.45;;;;;;;19.08;64.10;101881.06;4987095;28;20026;-48
2023/05/12 07:49:44;;;;;;;16.92;9.88;;;;;;;19.12;64.39;101877.50;4980256;28;20034;-51
2023/05/12 07:52:10;;;;;;;14.60;9.70;;;;;;;19.38;63.90;101886.16;4983321;28;20410;-46
2023/05/12 07:54:36;;;;;;;15.02;9.27;;;;;;;19.41;62.38;101887.88;4984189;28;20141;-47
2023/05/12 07:57:01;;;;;;;15.52;9.45;;;;;;;19.31;62.91;101886.19;4984055;28;20049;-48
2023/05/12 07:59:27;;;;;;;15.15;9.88;;;;;;;19.26;63.55;101888.88;4986714;28;20092;-49
2023/05/12 08:01:52;;;;;;;15.23;9.25;;;;;;;20.05;62.30;101890.06;4980864;28;20030;-48
2023/05/12 08:04:17;;;;;;;17.02;10.55;;;;;;;19.95;60.96;101894.53;4983568;28;20481;-51
2023/05/12 08:06:42;;;;;;;17.67;10.15;;;;;;;19.77;62.27;101899.97;4978180;28;20048;-48
2023/05/12 08:09:08;;;;;;;15.80;9.85;;;;;;;20.25;60.05;101904.81;4983759;28;20045;-49
2023/05/12 08:11:33;;;;;;;15.02;9.40;;;;;;;20.78;60.17;101898.09;4981247;28;20039;-47
2023/05/12 08:13:59;;;;;;;14.27;9.98;;;;;;;20.80;59.00;101898.94;4979903;28;20040;-46
2023/05/12 08:16:24;;;;;;;15.05;10.27;;;;;;;20.89;58.88;101895.31;4981919;28;20027;-52
2023/05/12 08:18:49;;;;;;;16.63;10.70;;;;;;;21.11;58.00;101896.75;4979098;28;20038;-47
2023/05/12 08:21:15;;;;;;;18.05;10.85;;;;;;;21.36;57.83;101905.28;4982915;28;20057;-47
2023/05/12 08:23:40;;;;;;;17.17;10.90;;;;;;;21.28;58.30;101896.59;4983240;28;20042;-50
2023/05/12 08:26:05;;;;;;;17.25;11.63;;;;;;;21.02;57.03;101897.78;4980049;28;20038;-47
2023/05/12 08:28:31;;;;;;;17.67;11.07;;;;;;;21.03;58.34;101902.19;4982612;28;20035;-49
2023/05/12 08:30:57;;;;;;;16.23;10.98;;;;;;;21.08;57.98;101909.19;4980681;28;20062;-44
2023/05/12 08:33:23;;;;;;;16.95;11.43;;;;;;;20.62;58.05;101912.41;4984018;28;20041;-50
2023/05/12 08:35:49;;;;;;;18.13;10.90;;;;;;;20.76;58.56;101917.56;4979918;28;20034;-47
2023/05/12 08:38:15;;;;;;;18.77;11.30;;;;;;;20.56;59.58;101915.13;4983041;28;20031;-50
2023/05/12 08:40:58;;;;;;;17.42;11.25;;;;;;;20.73;57.92;101920.25;4981229;28;20493;-52
2023/05/12 08:43:25;;;;;;;16.52;11.40;;;;;;;21.27;57.89;101908.09;4981449;28;20046;-48
2023/05/12 08:45:56;;;;;;;17.50;11.70;;;;;;;21.10;58.44;101912.72;4979531;28;20509;-47
2023/05/12 08:48:25;;;;;;;17.65;11.45;;;;;;;21.43;56.60;101910.47;4982539;28;20030;-53
2023/05/12 08:50:53;;;;;;;16.92;11.48;;;;;;;21.72;56.27;101914.44;4977811;28;20452;-47
2023/05/12 08:53:21;;;;;;;17.92;12.07;;;;;;;22.06;55.78;101909.50;4982715;28;20042;-54
2023/05/12 08:55:47;;;;;;;18.30;11.82;;;;;;;22.19;55.38;101916.34;4979358;28;20050;-51
2023/05/12 08:58:14;;;;;;;20.15;11.95;;;;;;;22.16;55.66;101922.56;4982539;28;20030;-52
2023/05/12 09:00:40;;;;;;;18.15;11.75;;;;;;;22.10;54.83;101920.03;4980315;28;20038;-49
2023/05/12 09:03:06;;;;;;;16.38;11.43;;;;;;;22.61;54.70;101918.19;4979146;28;20038;-48
2023/05/12 09:05:32;;;;;;;18.40;12.35;;;;;;;22.57;53.04;101920.91;4982532;28;20057;-49
2023/05/12 09:07:59;;;;;;;16.75;12.38;;;;;;;22.34;54.60;101916.06;4978981;28;20077;-47
2023/05/12 09:10:25;;;;;;;17.15;11.98;;;;;;;22.29;54.41;101920.56;4982538;28;20045;-49
2023/05/12 09:12:58;;;;;;;17.08;11.50;;;;;;;22.83;53.48;101918.66;4979506;28;20432;-49
2023/05/12 09:15:33;;;;;;;19.83;13.05;;;;;;;22.12;53.52;101922.66;4982306;28;20030;-45
2023/05/12 09:17:58;;;;;;;17.23;11.25;;;;;;;22.49;54.08;101917.56;4979191;28;20034;-46
2023/05/12 09:20:27;;;;;;;19.60;11.90;;;;;;;22.58;54.04;101918.22;4982641;28;20035;-47
2023/05/12 09:22:52;;;;;;;18.73;12.27;;;;;;;22.43;54.36;101915.88;4979935;28;20042;-48
2023/05/12 09:25:20;;;;;;;19.08;12.25;;;;;;;22.19;53.64;101922.53;4982293;28;20026;-48
2023/05/12 09:27:46;;;;;;;19.05;12.65;;;;;;;21.97;54.96;101914.94;4978746;28;20062;-52
2023/05/12 09:30:12;;;;;;;17.55;12.07;;;;;;;22.41;54.25;101915.03;4981833;28;20030;-49
2023/05/12 09:32:38;;;;;;;17.75;11.57;;;;;;;22.47;53.48;101920.22;4981797;28;20060;-47
2023/05/12 09:35:10;;;;;;;17.42;11.93;;;;;;;22.31;54.38;101921.44;4979793;28;20026;-47
2023/05/12 09:37:36;;;;;;;20.80;12.25;;;;;;;21.96;53.47;101919.38;4982866;28;20118;-45
2023/05/12 09:40:03;;;;;;;16.92;12.30;;;;;;;22.13;55.25;101916.47;4981468;28;20125;-46
2023/05/12 09:42:30;;;;;;;18.15;11.82;;;;;;;22.16;55.06;101922.56;4985711;28;20033;-49
2023/05/12 09:45:04;;;;;;;15.55;11.10;;;;;;;22.56;53.20;101935.13;4982765;28;20084;-45
2023/05/12 09:47:39;;;;;;;18.05;11.90;;;;;;;22.33;53.18;101932.00;4986094;28;20088;-46
2023/05/12 09:50:06;;;;;;;16.58;10.88;;;;;;;23.06;53.33;101935.00;4981348;28;20473;-51
2023/05/12 09:52:36;;;;;;;17.30;11.60;;;;;;;22.84;52.84;101930.16;4986157;28;20137;-48
2023/05/12 09:55:07;;;;;;;14.75;11.25;;;;;;;22.95;53.38;101937.00;4983393;28;20042;-46
2023/05/12 09:57:35;;;;;;;16.80;12.02;;;;;;;22.94;53.56;101932.59;4988688;28;20475;-46
2023/05/12 10:00:02;;;;;;;18.38;12.45;;;;;;;22.90;53.09;101928.25;4983736;28;20214;-48
2023/05/12 10:02:28;;;;;;;20.60;13.32;;;;;;;22.61;52.21;101934.13;4986312;28;20031;-46
2023/05/12 10:04:59;;;;;;;20.70;13.43;;;;;;;22.75;52.96;101938.34;4983353;28;20026;-49
2023/05/12 10:07:26;;;;;;;17.08;11.80;;;;;;;23.23;52.81;101933.78;4986313;28;20690;-48
2023/05/12 10:09:58;;;;;;;17.73;12.77;;;;;;;22.99;52.43;101935.19;4982986;28;20045;-47
2023/05/12 10:12:23;;;;;;;20.13;13.40;;;;;;;22.58;52.43;101935.97;4986314;28;20042;-46
2023/05/12 10:14:50;;;;;;;17.15;12.95;;;;;;;22.87;53.39;101930.97;4981748;28;20042;-46
2023/05/12 10:17:18;;;;;;;18.50;12.77;;;;;;;22.89;53.20;101936.25;4985937;28;20064;-47
2023/05/12 10:19:44;;;;;;;20.80;13.18;;;;;;;22.62;53.75;101938.56;4982379;28;20072;-45
2023/05/12 10:22:10;;;;;;;19.70;13.20;;;;;;;22.57;53.33;101939.53;4984599;28;20068;-48
2023/05/12 10:24:38;;;;;;;18.95;12.65;;;;;;;22.97;53.08;101937.88;4985592;28;20062;-46
2023/05/12 10:27:07;;;;;;;20.58;13.38;;;;;;;22.62;53.16;101940.34;4982040;28;20034;-45
2023/05/12 10:29:33;;;;;;;18.30;13.23;;;;;;;22.65;53.68;101942.91;4983658;28;20031;-52
2023/05/12 10:32:02;;;;;;;17.35;12.45;;;;;;;22.91;52.88;101934.44;4981472;28;20449;-48
2023/05/12 10:34:36;;;;;;;22.75;13.88;;;;;;;22.64;53.49;101942.03;4985216;28;20034;-50
2023/05/12 10:37:09;;;;;;;23.08;14.05;;;;;;;23.02;54.51;101945.75;4981906;28;20042;-49
2023/05/12 10:39:36;;;;;;;21.33;14.20;;;;;;;22.73;54.70;101946.34;4985127;28;20038;-55
2023/05/12 10:42:07;;;;;;;21.90;13.02;;;;;;;23.13;54.08;101940.19;4982183;28;20038;-45
2023/05/12 10:44:32;;;;;;;20.60;14.00;;;;;;;22.85;54.20;101945.22;4985281;28;20113;-45
2023/05/12 10:46:58;;;;;;;17.17;12.45;;;;;;;23.62;53.58;101939.97;4982566;28;20181;-47
2023/05/12 10:49:32;;;;;;;19.75;13.32;;;;;;;23.48;53.61;101945.66;4984166;28;20030;-48
2023/05/12 10:51:59;;;;;;;20.90;13.02;;;;;;;23.99;52.07;101948.81;4979820;28;20053;-51
2023/05/12 10:54:25;;;;;;;17.70;13.25;;;;;;;24.18;50.28;101942.16;4986814;28;20069;-49
2023/05/12 10:56:50;;;;;;;21.00;14.65;;;;;;;23.93;49.96;101943.66;4982996;28;20101;-45
2023/05/12 10:59:21;;;;;;;21.77;14.07;;;;;;;24.35;51.07;101938.16;4985727;28;20121;-47
2023/05/12 11:02:11;;;;;;;21.17;14.60;;;;;;;24.57;50.43;101947.34;4982211;28;20038;-50
2023/05/12 11:04:46;;;;;;;21.92;14.73;;;;;;;23.52;51.95;101942.00;4984752;28;20030;-49
2023/05/12 11:07:13;;;;;;;22.33;14.68;;;;;;;23.60;51.69;101937.38;4981714;28;20046;-48
2023/05/12 11:09:43;;;;;;;20.35;14.13;;;;;;;23.85;50.82;101941.16;4984543;28;20040;-48
2023/05/12 11:12:10;;;;;;;19.10;13.20;;;;;;;24.03;50.49;101950.47;4980634;28;20054;-50